createdAt,value
2023-05-12T00:01:28.150Z,15.5
2023-05-12T00:06:40.482Z,15.4
2023-05-12T00:11:52.809Z,15.3
2023-05-12T00:17:05.133Z,15.3
2023-05-12T00:22:17.457Z,15.2
2023-05-12T00:32:35.049Z,15.1
2023-05-12T00:37:40.271Z,15.0
2023-05-12T00:42:58.719Z,15.0
2023-05-12T00:48:17.170Z,15.0
2023-05-12T00:53:48.150Z,14.9
2023-05-12T00:58:40.880Z,14.9
2023-05-12T01:03:46.181Z,14.8
2023-05-12T01:08:58.435Z,14.8
2023-05-12T01:14:10.767Z,14.8
2023-05-12T01:19:23.092Z,14.7
2023-05-12T01:24:35.434Z,14.7
2023-05-12T01:29:46.780Z,14.6
2023-05-12T01:34:52.020Z,14.6
2023-05-12T01:39:58.240Z,14.5
2023-05-12T01:45:04.446Z,14.5
2023-05-12T01:50:10.657Z,14.5
2023-05-12T01:55:16.878Z,14.4
2023-05-12T02:00:23.097Z,14.4
2023-05-12T02:05:29.325Z,14.4
2023-05-12T02:10:35.517Z,14.3
2023-05-12T02:15:41.729Z,14.3
2023-05-12T02:20:47.967Z,14.3
2023-05-12T02:25:54.170Z,14.3
2023-05-12T02:31:00.399Z,14.3
2023-05-12T02:36:06.587Z,14.2
2023-05-12T02:41:12.803Z,14.2
2023-05-12T02:46:19.118Z,14.2
2023-05-12T02:51:25.229Z,14.2
2023-05-12T02:56:33.870Z,14.2
2023-05-12T03:01:37.740Z,14.3
2023-05-12T03:06:43.864Z,14.3
2023-05-12T03:11:50.085Z,14.3
2023-05-12T03:16:56.326Z,14.3
2023-05-12T03:22:01.537Z,14.3
2023-05-12T03:27:07.756Z,14.3
2023-05-12T03:32:13.993Z,14.4
2023-05-12T03:37:20.311Z,14.4
2023-05-12T03:42:26.392Z,14.4
2023-05-12T03:47:32.713Z,14.4
2023-05-12T03:52:38.836Z,14.4
2023-05-12T03:57:45.035Z,14.4
2023-05-12T04:02:51.329Z,14.5
2023-05-12T04:07:57.453Z,14.5
2023-05-12T04:13:03.664Z,14.5
2023-05-12T04:18:09.892Z,14.5
2023-05-12T04:23:16.106Z,14.6
2023-05-12T04:28:22.309Z,14.6
2023-05-12T04:33:28.519Z,14.6
2023-05-12T04:38:34.745Z,14.7
2023-05-12T04:48:47.181Z,14.8
2023-05-12T04:53:53.395Z,14.9
2023-05-12T04:58:59.595Z,14.9
2023-05-12T05:04:04.838Z,15.0
2023-05-12T05:09:11.060Z,15.0
2023-05-12T05:14:17.281Z,15.1
2023-05-12T05:19:35.366Z,15.1
2023-05-12T05:24:29.696Z,15.2
2023-05-12T05:29:35.913Z,15.2
2023-05-12T05:34:42.164Z,15.3
2023-05-12T05:39:48.332Z,15.4
2023-05-12T05:50:00.750Z,15.5
2023-05-12T05:55:06.972Z,15.7
2023-05-12T06:00:13.193Z,15.8
2023-05-12T06:05:18.511Z,15.9
2023-05-12T06:10:24.615Z,16.0
2023-05-12T06:15:30.815Z,16.0
2023-05-12T06:20:37.028Z,16.1
2023-05-12T06:25:43.242Z,16.3
2023-05-12T06:30:49.436Z,16.4
2023-05-12T06:35:55.664Z,16.4
2023-05-12T06:41:01.856Z,16.5
2023-05-12T06:46:08.093Z,16.6
2023-05-12T06:51:13.307Z,16.7
2023-05-12T06:56:19.536Z,16.8
2023-05-12T07:01:25.772Z,16.9
2023-05-12T07:06:31.945Z,17.0
2023-05-12T07:11:38.170Z,17.1
2023-05-12T07:16:44.347Z,17.2
2023-05-12T07:21:50.555Z,17.4
2023-05-12T07:26:56.776Z,17.6
2023-05-12T07:32:02.968Z,17.8
2023-05-12T07:37:09.181Z,18.1
2023-05-12T07:42:15.392Z,18.3
2023-05-12T07:47:21.596Z,18.5
2023-05-12T07:52:27.816Z,18.7
2023-05-12T07:57:34.014Z,18.9
2023-05-12T08:02:40.331Z,19.0
2023-05-12T08:07:46.448Z,19.2
2023-05-12T08:12:52.648Z,19.2
2023-05-12T08:17:58.908Z,19.1
2023-05-12T08:23:05.054Z,19.0
2023-05-12T08:28:11.273Z,19.0
2023-05-12T08:33:16.504Z,19.1
2023-05-12T08:38:22.713Z,19.2
2023-05-12T08:43:28.922Z,19.3
2023-05-12T08:48:35.149Z,19.3
2023-05-12T08:53:41.331Z,19.4
2023-05-12T08:58:47.543Z,19.4
2023-05-12T09:03:53.781Z,19.5
2023-05-12T09:08:59.972Z,19.6
2023-05-12T09:14:06.170Z,19.6
2023-05-12T09:19:12.541Z,19.7
2023-05-12T09:24:18.588Z,19.8
2023-05-12T09:29:31.758Z,19.9
2023-05-12T09:34:31.031Z,20.0
2023-05-12T09:39:37.332Z,20.0
2023-05-12T09:44:43.450Z,20.1
2023-05-12T09:49:49.635Z,20.1
2023-05-12T09:54:55.837Z,20.2
2023-05-12T10:00:02.052Z,20.3
2023-05-12T10:05:08.332Z,20.5
2023-05-12T10:10:14.461Z,20.5
2023-05-12T10:15:21.146Z,20.5
2023-05-12T10:20:26.884Z,20.5
2023-05-12T10:25:33.087Z,20.5
2023-05-12T10:30:39.300Z,20.4
2023-05-12T10:35:47.672Z,20.4
2023-05-12T10:40:51.722Z,20.4
2023-05-12T10:45:57.956Z,20.4
2023-05-12T10:51:04.133Z,20.4
2023-05-12T10:56:10.703Z,20.4
2023-05-12T11:01:16.806Z,20.5
2023-05-12T11:06:22.949Z,20.6
2023-05-12T11:11:29.397Z,20.8
2023-05-12T11:16:35.298Z,21.1
2023-05-12T11:21:41.383Z,21.4
2023-05-12T11:26:47.596Z,21.6
2023-05-12T11:31:53.843Z,21.9
2023-05-12T11:37:00.053Z,22.1
2023-05-12T11:42:14.074Z,22.2
2023-05-12T11:47:12.448Z,22.4
2023-05-12T11:52:18.647Z,22.5
2023-05-12T11:57:24.846Z,22.5
2023-05-12T12:02:31.148Z,22.6
2023-05-12T12:07:37.273Z,22.7
2023-05-12T12:12:43.495Z,22.8
2023-05-12T12:17:49.703Z,22.9
2023-05-12T12:22:55.897Z,23.0
2023-05-12T12:28:02.150Z,23.0
2023-05-12T12:33:08.423Z,23.0
2023-05-12T12:38:14.542Z,23.0
2023-05-12T12:43:20.732Z,23.0
2023-05-12T12:48:26.943Z,23.0
2023-05-12T12:53:33.147Z,23.1
2023-05-12T12:58:39.375Z,23.2
2023-05-12T13:03:45.568Z,23.3
2023-05-12T13:08:51.783Z,23.3
2023-05-12T13:13:57.997Z,23.3
2023-05-12T13:19:04.237Z,23.3
2023-05-12T13:24:10.417Z,23.3
2023-05-12T13:29:16.619Z,23.3
2023-05-12T13:34:22.859Z,23.5
2023-05-12T13:39:29.035Z,23.6
2023-05-12T13:44:35.265Z,23.7
2023-05-12T13:49:41.559Z,23.7
2023-05-12T13:54:47.662Z,23.7
2023-05-12T13:59:53.871Z,23.8
2023-05-12T14:04:59.169Z,23.8
2023-05-12T14:10:05.304Z,23.8
2023-05-12T14:15:29.612Z,23.9
2023-05-12T14:20:17.724Z,24.0
2023-05-12T14:25:23.983Z,24.2
2023-05-12T14:30:30.235Z,24.4
2023-05-12T14:35:36.343Z,24.5
2023-05-12T14:40:42.561Z,24.5
2023-05-12T14:45:48.809Z,24.7
2023-05-12T14:50:54.979Z,24.9
2023-05-12T14:56:01.182Z,25.0
2023-05-12T15:01:09.369Z,25.2
2023-05-12T15:06:15.245Z,25.3
2023-05-12T15:11:19.853Z,25.5
2023-05-12T15:16:26.069Z,25.5
2023-05-12T15:21:32.465Z,25.6
2023-05-12T15:26:40.020Z,25.7
2023-05-12T15:31:44.724Z,25.9
2023-05-12T15:36:50.916Z,26.1
2023-05-12T18:09:57.250Z,19.3
2023-05-12T19:06:05.562Z,18.7
2023-05-12T19:11:11.672Z,18.6
2023-05-12T19:16:17.931Z,18.5
2023-05-12T19:21:24.094Z,18.5
2023-05-12T19:26:30.312Z,18.5
2023-05-12T19:31:36.530Z,18.4
2023-05-12T19:36:41.744Z,18.3
2023-05-12T19:41:47.951Z,18.3
2023-05-12T19:46:54.149Z,18.2
2023-05-12T19:52:00.377Z,18.2
2023-05-12T19:57:06.561Z,18.1
2023-05-12T20:02:12.861Z,18.0
2023-05-12T20:07:19.004Z,17.9
2023-05-12T20:12:25.196Z,17.9
2023-05-12T20:17:31.468Z,17.8
2023-05-12T20:22:37.627Z,17.8
2023-05-12T20:27:43.884Z,17.8
2023-05-12T20:32:50.058Z,17.8
2023-05-12T20:37:56.262Z,17.8
2023-05-12T20:43:02.450Z,17.8
2023-05-12T20:48:08.659Z,17.8
2023-05-12T20:53:14.853Z,17.8
2023-05-12T20:58:21.079Z,17.8
2023-05-12T21:03:27.308Z,17.8
2023-05-12T21:08:33.482Z,17.8
2023-05-12T21:13:39.691Z,17.8
2023-05-12T21:18:45.914Z,17.8
2023-05-12T21:23:52.111Z,17.7
2023-05-12T21:28:58.314Z,17.7
2023-05-12T21:34:04.522Z,17.7
2023-05-12T21:39:10.915Z,17.6
2023-05-12T21:44:16.951Z,17.6
2023-05-12T21:49:23.145Z,17.5
2023-05-12T21:54:29.350Z,17.4
2023-05-12T21:59:35.592Z,17.4
2023-05-12T22:04:41.779Z,17.3
2023-05-12T22:09:47.980Z,17.2
2023-05-12T22:14:54.197Z,17.2
2023-05-12T22:20:00.411Z,17.2
2023-05-12T22:25:06.616Z,17.1
2023-05-12T22:30:12.826Z,17.1
2023-05-12T22:35:19.025Z,17.0
2023-05-12T22:40:25.237Z,17.0
2023-05-12T22:45:31.444Z,16.9
2023-05-12T22:50:37.669Z,16.9
2023-05-12T22:55:43.856Z,16.9
2023-05-12T23:00:50.189Z,16.8
2023-05-12T23:05:56.276Z,16.8
2023-05-12T23:11:01.536Z,16.8
2023-05-12T23:16:07.780Z,16.8
2023-05-12T23:21:13.924Z,16.9
2023-05-12T23:26:20.139Z,16.9
2023-05-12T23:31:26.381Z,16.9
2023-05-12T23:36:32.552Z,16.9
2023-05-12T23:41:38.777Z,17.0
2023-05-12T23:46:44.992Z,17.0
2023-05-12T23:56:57.417Z,17.0
